createdAt,value
2022-09-26T00:00:12.520Z,2.40
2022-09-26T00:01:12.570Z,2.80
2022-09-26T00:02:12.562Z,2.80
2022-09-26T00:03:12.514Z,3.70
2022-09-26T00:04:13.317Z,2.70
2022-09-26T00:05:12.434Z,3.60
2022-09-26T00:06:15.308Z,2.50
2022-09-26T00:07:12.424Z,3.20
2022-09-26T00:08:12.413Z,5.00
2022-09-26T00:09:13.008Z,5.30
2022-09-26T00:10:12.390Z,3.00
2022-09-26T00:11:12.357Z,3.20
2022-09-26T00:12:12.364Z,3.00
2022-09-26T00:13:12.332Z,2.80
2022-09-26T00:14:12.354Z,2.70
2022-09-26T00:15:12.360Z,4.80
2022-09-26T00:16:12.389Z,3.70
2022-09-26T00:17:12.436Z,4.20
2022-09-26T00:18:12.289Z,3.00
2022-09-26T00:19:12.361Z,2.70
2022-09-26T00:20:12.299Z,3.60
2022-09-26T00:21:12.265Z,3.00
2022-09-26T00:22:12.320Z,5.10
2022-09-26T00:23:14.815Z,3.20
2022-09-26T00:24:12.221Z,3.20
2022-09-26T00:25:12.202Z,2.70
2022-09-26T00:26:12.227Z,4.50
2022-09-26T00:27:12.182Z,3.40
2022-09-26T00:28:12.212Z,5.80
2022-09-26T00:29:12.301Z,4.40
2022-09-26T00:30:12.152Z,4.30
2022-09-26T00:31:12.239Z,4.40
2022-09-26T00:32:12.331Z,3.60
2022-09-26T00:33:12.799Z,3.60
2022-09-26T00:34:12.359Z,3.90
2022-09-26T00:35:12.112Z,4.60
2022-09-26T00:36:12.089Z,5.00
2022-09-26T00:37:12.085Z,4.70
2022-09-26T00:38:12.093Z,6.00
2022-09-26T00:39:13.035Z,3.40
2022-09-26T00:40:12.154Z,2.60
2022-09-26T00:41:12.055Z,4.90
2022-09-26T00:42:12.027Z,3.50
2022-09-26T00:43:12.060Z,3.40
2022-09-26T00:44:12.030Z,3.50
2022-09-26T00:45:11.997Z,3.70
2022-09-26T00:46:12.077Z,3.70
2022-09-26T00:47:11.960Z,3.60
2022-09-26T00:48:11.956Z,4.30
2022-09-26T00:49:12.090Z,4.70
2022-09-26T00:50:14.835Z,3.90
2022-09-26T00:51:11.926Z,4.10
2022-09-26T00:52:18.816Z,3.60
2022-09-26T00:53:11.898Z,5.60
2022-09-26T00:54:11.916Z,4.00
2022-09-26T00:55:11.927Z,4.80
2022-09-26T00:56:13.865Z,4.30
2022-09-26T00:57:11.860Z,3.70
2022-09-26T00:58:11.868Z,3.80
2022-09-26T00:59:11.891Z,3.00
2022-09-26T01:00:11.872Z,4.70
2022-09-26T01:01:12.021Z,4.60
2022-09-26T01:02:11.966Z,3.70
2022-09-26T01:03:14.331Z,2.70
2022-09-26T01:04:11.810Z,3.30
2022-09-26T01:05:11.776Z,3.70
2022-09-26T01:06:11.778Z,3.30
2022-09-26T01:07:11.774Z,3.70
2022-09-26T01:08:12.333Z,5.70
2022-09-26T01:09:11.919Z,3.20
2022-09-26T01:10:11.730Z,4.00
2022-09-26T01:11:16.679Z,3.90
2022-09-26T01:12:12.700Z,3.70
2022-09-26T01:13:11.749Z,5.00
2022-09-26T01:14:11.680Z,5.00
2022-09-26T01:15:11.692Z,2.80
2022-09-26T01:16:11.688Z,4.10
2022-09-26T01:17:11.676Z,3.70
2022-09-26T01:18:11.659Z,3.30
2022-09-26T01:19:11.632Z,4.50
2022-09-26T01:20:11.616Z,4.70
2022-09-26T01:21:11.602Z,3.90
2022-09-26T01:22:11.600Z,3.30
2022-09-26T01:23:12.616Z,4.50
2022-09-26T01:24:11.599Z,3.40
2022-09-26T01:25:11.560Z,3.40
2022-09-26T01:26:11.548Z,6.70
2022-09-26T01:27:12.323Z,2.80
2022-09-26T01:28:11.540Z,5.20
2022-09-26T01:29:11.560Z,3.50
2022-09-26T01:30:11.539Z,3.20
2022-09-26T01:31:12.394Z,3.80
2022-09-26T01:32:12.308Z,3.10
2022-09-26T01:33:11.493Z,4.10
2022-09-26T01:34:11.459Z,3.50
2022-09-26T01:35:11.828Z,5.10
2022-09-26T01:36:11.469Z,3.30
2022-09-26T01:37:11.425Z,3.50
2022-09-26T01:38:11.413Z,6.70
2022-09-26T01:39:11.396Z,3.20
2022-09-26T01:40:11.443Z,3.50
2022-09-26T01:41:11.413Z,3.30
2022-09-26T01:42:11.380Z,3.30
2022-09-26T01:43:11.383Z,3.20
2022-09-26T01:44:12.341Z,3.70
2022-09-26T01:45:11.332Z,3.80
2022-09-26T01:46:11.435Z,3.90
2022-09-26T01:47:11.349Z,4.10
2022-09-26T01:48:11.312Z,3.30
2022-09-26T01:49:11.843Z,3.60
2022-09-26T01:50:11.287Z,3.00
2022-09-26T01:51:13.807Z,3.20
2022-09-26T01:52:11.300Z,3.20
2022-09-26T01:53:11.814Z,5.30
2022-09-26T01:54:11.229Z,4.00
2022-09-26T01:55:11.252Z,3.20
2022-09-26T01:56:11.221Z,3.40
2022-09-26T01:57:11.235Z,4.30
2022-09-26T01:58:11.196Z,3.50
2022-09-26T01:59:11.974Z,2.90
2022-09-26T02:00:11.334Z,3.80
2022-09-26T02:01:11.193Z,3.40
2022-09-26T02:02:13.964Z,5.60
2022-09-26T02:03:11.813Z,3.30
2022-09-26T02:04:11.155Z,2.50
2022-09-26T02:05:11.187Z,2.30
2022-09-26T02:06:11.105Z,7.00
2022-09-26T02:07:11.122Z,3.70
2022-09-26T02:08:11.118Z,4.80
2022-09-26T02:09:11.116Z,4.50
2022-09-26T02:10:11.070Z,2.70
2022-09-26T02:11:11.048Z,2.80
2022-09-26T02:12:13.805Z,3.60
2022-09-26T02:13:11.062Z,2.90
2022-09-26T02:14:11.028Z,3.50
2022-09-26T02:15:11.121Z,3.00
2022-09-26T02:16:11.098Z,3.40
2022-09-26T02:17:10.982Z,3.50
2022-09-26T02:18:10.983Z,3.00
2022-09-26T02:19:11.901Z,4.10
2022-09-26T02:20:11.815Z,2.80
2022-09-26T02:21:10.968Z,2.60
2022-09-26T02:22:13.808Z,5.30
2022-09-26T02:23:10.916Z,4.10
2022-09-26T02:24:10.904Z,3.60
2022-09-26T02:25:10.900Z,3.00
2022-09-26T02:26:10.930Z,6.50
2022-09-26T02:27:10.887Z,2.90
2022-09-26T02:28:10.873Z,3.70
2022-09-26T02:29:10.859Z,2.90
2022-09-26T02:30:10.882Z,4.00
2022-09-26T02:31:10.849Z,4.10
2022-09-26T02:32:10.942Z,3.00
2022-09-26T02:33:10.828Z,4.60
2022-09-26T02:34:10.850Z,3.90
2022-09-26T02:35:10.830Z,3.20
2022-09-26T02:36:13.307Z,3.80
2022-09-26T02:37:10.766Z,3.80
2022-09-26T02:38:10.780Z,4.40
2022-09-26T02:39:10.773Z,5.50
2022-09-26T02:40:10.775Z,5.40
2022-09-26T02:41:10.732Z,3.80
2022-09-26T02:42:10.727Z,3.80
2022-09-26T02:43:10.709Z,6.00
2022-09-26T02:44:10.715Z,3.30
2022-09-26T02:45:13.320Z,3.60
2022-09-26T02:46:10.777Z,4.30
2022-09-26T02:47:10.857Z,4.90
2022-09-26T02:48:10.660Z,3.20
2022-09-26T02:49:10.674Z,3.30
2022-09-26T02:50:10.624Z,3.70
2022-09-26T02:51:10.887Z,4.50
2022-09-26T02:52:17.312Z,3.80
2022-09-26T02:53:10.602Z,3.80
2022-09-26T02:54:10.600Z,3.40
2022-09-26T02:55:10.844Z,4.00
2022-09-26T02:56:10.570Z,3.30
2022-09-26T02:57:10.567Z,4.60
2022-09-26T02:58:11.319Z,3.80
2022-09-26T02:59:10.527Z,3.60
2022-09-26T03:00:10.526Z,3.90
2022-09-26T03:01:11.019Z,4.80
2022-09-26T03:02:10.499Z,3.50
2022-09-26T03:03:10.602Z,4.90
2022-09-26T03:04:11.320Z,3.50
2022-09-26T03:05:11.486Z,3.90
2022-09-26T03:06:10.512Z,5.30
2022-09-26T03:07:11.318Z,4.80
2022-09-26T03:08:10.437Z,3.10
2022-09-26T03:09:10.439Z,4.90
2022-09-26T03:10:10.429Z,4.70
2022-09-26T03:11:10.436Z,3.30
2022-09-26T03:12:13.307Z,4.90
2022-09-26T03:13:10.847Z,4.60
2022-09-26T03:14:10.390Z,5.00
2022-09-26T03:15:13.322Z,4.20
2022-09-26T03:16:11.330Z,4.20
2022-09-26T03:17:10.360Z,3.70
2022-09-26T03:18:10.320Z,3.40
2022-09-26T03:19:10.364Z,3.30
2022-09-26T03:20:10.312Z,4.90
2022-09-26T03:21:12.848Z,4.20
2022-09-26T03:22:10.279Z,3.50
2022-09-26T03:23:10.278Z,3.30
2022-09-26T03:24:10.300Z,3.80
2022-09-26T03:25:12.851Z,4.90
2022-09-26T03:26:12.815Z,5.10
2022-09-26T03:27:10.817Z,3.90
2022-09-26T03:28:10.229Z,4.50
2022-09-26T03:29:10.241Z,3.60
2022-09-26T03:30:10.193Z,4.00
2022-09-26T03:31:10.210Z,5.40
2022-09-26T03:32:10.325Z,4.20
2022-09-26T03:33:10.214Z,4.00
2022-09-26T03:34:10.813Z,3.20
2022-09-26T03:35:10.195Z,5.40
2022-09-26T03:36:10.160Z,5.30
2022-09-26T03:37:10.117Z,4.00
2022-09-26T03:38:13.689Z,5.70
2022-09-26T03:39:10.818Z,5.10
2022-09-26T03:40:10.233Z,5.70
2022-09-26T03:41:10.077Z,5.10
2022-09-26T03:42:10.112Z,3.60
2022-09-26T03:43:12.852Z,4.90
2022-09-26T03:44:10.067Z,5.50
2022-09-26T03:45:10.038Z,5.60
2022-09-26T03:46:10.866Z,5.30
2022-09-26T03:47:10.344Z,5.00
2022-09-26T03:48:12.819Z,5.40
2022-09-26T03:49:09.988Z,7.00
2022-09-26T03:50:09.974Z,3.60
2022-09-26T03:51:16.836Z,7.30
2022-09-26T03:52:16.833Z,7.20
2022-09-26T03:53:09.980Z,4.80
2022-09-26T03:54:09.948Z,6.40
2022-09-26T03:55:09.924Z,6.40
2022-09-26T03:56:12.853Z,4.70
2022-09-26T03:57:10.830Z,6.60
2022-09-26T03:58:10.349Z,5.30
2022-09-26T03:59:09.900Z,7.40
2022-09-26T04:00:10.814Z,5.30
2022-09-26T04:01:09.937Z,5.30
2022-09-26T04:02:09.979Z,5.00
2022-09-26T04:03:09.898Z,7.90
2022-09-26T04:04:10.821Z,5.00
2022-09-26T04:05:09.817Z,4.40
2022-09-26T04:06:10.317Z,4.90
2022-09-26T04:07:10.338Z,5.10
2022-09-26T04:08:16.339Z,5.30
2022-09-26T04:09:14.463Z,5.70
2022-09-26T04:10:10.770Z,5.40
2022-09-26T04:11:10.351Z,4.70
2022-09-26T04:12:09.736Z,6.00
2022-09-26T04:13:09.728Z,7.30
2022-09-26T04:14:09.755Z,4.90
2022-09-26T04:15:09.709Z,5.20
2022-09-26T04:16:09.751Z,6.00
2022-09-26T04:17:09.776Z,6.60
2022-09-26T04:18:09.680Z,5.80
2022-09-26T04:19:09.748Z,5.40
2022-09-26T04:20:10.326Z,5.20
2022-09-26T04:21:10.200Z,5.30
2022-09-26T04:22:09.634Z,5.40
2022-09-26T04:23:12.328Z,7.70
2022-09-26T04:24:10.327Z,7.60
2022-09-26T04:25:09.618Z,5.30
2022-09-26T04:26:09.595Z,5.20
2022-09-26T04:27:09.599Z,5.10
2022-09-26T04:28:09.589Z,5.70
2022-09-26T04:29:09.655Z,5.80
2022-09-26T04:30:09.552Z,5.20
2022-09-26T04:31:09.545Z,6.30
2022-09-26T04:32:09.550Z,5.10
2022-09-26T04:33:09.513Z,5.90
2022-09-26T04:34:16.321Z,5.70
2022-09-26T04:35:09.483Z,6.90
2022-09-26T04:36:09.474Z,6.90
2022-09-26T04:37:09.519Z,7.30
2022-09-26T04:38:16.348Z,6.70
2022-09-26T04:39:12.456Z,8.30
2022-09-26T04:40:09.432Z,5.00
2022-09-26T04:41:12.318Z,7.00
2022-09-26T04:42:09.432Z,6.40
2022-09-26T04:43:09.395Z,6.40
2022-09-26T04:44:09.423Z,6.70
2022-09-26T04:45:09.381Z,5.10
2022-09-26T04:46:09.430Z,5.90
2022-09-26T04:47:09.367Z,6.50
2022-09-26T04:48:09.346Z,5.00
2022-09-26T04:49:09.444Z,6.40
2022-09-26T04:50:09.343Z,6.20
2022-09-26T04:51:09.332Z,5.70
2022-09-26T04:52:09.300Z,6.30
2022-09-26T04:53:09.326Z,8.40
2022-09-26T04:54:09.314Z,5.60
2022-09-26T04:55:09.295Z,5.30
2022-09-26T04:56:09.297Z,6.60
2022-09-26T04:57:09.241Z,5.10
2022-09-26T04:58:09.274Z,5.50
2022-09-26T04:59:09.883Z,6.30
2022-09-26T05:00:09.214Z,7.00
2022-09-26T05:01:09.257Z,6.30
2022-09-26T05:02:09.245Z,5.30
2022-09-26T05:03:09.183Z,6.40
2022-09-26T05:04:09.350Z,5.80
2022-09-26T05:05:09.166Z,5.50
2022-09-26T05:06:09.152Z,11.80
2022-09-26T05:07:09.148Z,6.50
2022-09-26T05:08:09.127Z,5.10
2022-09-26T05:09:09.239Z,7.60
2022-09-26T05:10:09.365Z,6.10
2022-09-26T05:11:09.097Z,5.70
2022-09-26T05:12:09.820Z,7.20
2022-09-26T05:13:09.075Z,6.80
2022-09-26T05:14:09.082Z,5.80
2022-09-26T05:15:09.052Z,6.10
2022-09-26T05:16:09.151Z,5.30
2022-09-26T05:17:09.030Z,5.50
2022-09-26T05:18:09.015Z,6.10
2022-09-26T05:19:09.081Z,6.30
2022-09-26T05:20:09.037Z,5.90
2022-09-26T05:21:08.981Z,5.80
2022-09-26T05:22:08.976Z,7.20
2022-09-26T05:23:08.968Z,7.00
2022-09-26T05:24:08.946Z,9.30
2022-09-26T05:25:08.968Z,6.20
2022-09-26T05:26:08.956Z,6.70
2022-09-26T05:27:08.919Z,6.20
2022-09-26T05:28:08.914Z,7.30
2022-09-26T05:29:09.381Z,6.70
2022-09-26T05:30:08.915Z,7.30
2022-09-26T05:31:08.977Z,6.80
2022-09-26T05:32:08.895Z,5.90
2022-09-26T05:33:08.846Z,6.60
2022-09-26T05:34:08.871Z,6.40
2022-09-26T05:35:09.027Z,6.10
2022-09-26T05:36:08.831Z,5.20
2022-09-26T05:37:08.831Z,5.90
2022-09-26T05:38:08.801Z,5.80
2022-09-26T05:39:08.914Z,6.60
2022-09-26T05:40:08.783Z,6.30
2022-09-26T05:41:08.760Z,7.40
2022-09-26T05:42:08.850Z,5.20
2022-09-26T05:43:08.773Z,5.90
2022-09-26T05:44:08.733Z,5.40
2022-09-26T05:45:08.746Z,7.70
2022-09-26T05:46:08.723Z,6.40
2022-09-26T05:47:08.885Z,5.80
2022-09-26T05:48:08.680Z,9.10
2022-09-26T05:49:08.778Z,6.00
2022-09-26T05:50:11.325Z,5.60
2022-09-26T05:51:08.674Z,5.30
2022-09-26T05:52:08.636Z,6.10
2022-09-26T05:53:08.866Z,7.70
2022-09-26T05:54:08.612Z,5.80
2022-09-26T05:55:09.322Z,6.90
2022-09-26T05:56:08.613Z,6.70
2022-09-26T05:57:08.625Z,5.90
2022-09-26T05:58:08.609Z,7.00
2022-09-26T05:59:08.577Z,6.90
2022-09-26T06:00:08.545Z,6.60
2022-09-26T06:01:08.655Z,5.50
2022-09-26T06:02:08.622Z,7.50
2022-09-26T06:03:08.527Z,5.30
2022-09-26T06:04:08.526Z,5.20
2022-09-26T06:05:08.490Z,6.00
2022-09-26T06:06:08.501Z,5.30
2022-09-26T06:07:08.529Z,5.90
2022-09-26T06:08:08.470Z,7.80
2022-09-26T06:09:08.454Z,5.20
2022-09-26T06:10:08.438Z,6.90
2022-09-26T06:11:08.443Z,5.20
2022-09-26T06:12:08.417Z,6.40
2022-09-26T06:13:08.454Z,5.80
2022-09-26T06:14:08.419Z,6.60
2022-09-26T06:15:08.379Z,4.90
2022-09-26T06:16:08.430Z,5.00
2022-09-26T06:17:08.365Z,6.80
2022-09-26T06:18:08.356Z,4.60
2022-09-26T06:19:08.522Z,6.50
2022-09-26T06:20:08.343Z,5.10
2022-09-26T06:21:08.315Z,5.90
2022-09-26T06:22:08.324Z,4.40
2022-09-26T06:23:08.303Z,6.40
2022-09-26T06:24:08.299Z,5.30
2022-09-26T06:25:08.311Z,4.50
2022-09-26T06:26:08.261Z,5.80
2022-09-26T06:27:08.266Z,8.00
2022-09-26T06:28:08.250Z,4.40
2022-09-26T06:29:08.254Z,6.00
2022-09-26T06:30:08.234Z,4.90
2022-09-26T06:31:08.314Z,4.70
2022-09-26T06:32:08.238Z,6.70
2022-09-26T06:33:08.209Z,5.40
2022-09-26T06:34:08.179Z,6.10
2022-09-26T06:35:08.185Z,4.70
2022-09-26T06:36:08.199Z,5.10
2022-09-26T06:37:08.187Z,5.80
2022-09-26T06:38:08.831Z,5.20
2022-09-26T06:39:08.159Z,6.00
2022-09-26T06:40:08.126Z,7.10
2022-09-26T06:41:08.111Z,5.20
2022-09-26T06:42:08.087Z,5.40
2022-09-26T06:43:08.085Z,4.40
2022-09-26T06:44:08.094Z,8.60
2022-09-26T06:45:08.060Z,5.50
2022-09-26T06:46:08.163Z,6.60
2022-09-26T06:47:08.096Z,5.00
2022-09-26T06:48:08.025Z,5.60
2022-09-26T06:49:08.047Z,5.70
2022-09-26T06:50:08.006Z,5.10
2022-09-26T06:51:07.996Z,4.20
2022-09-26T06:52:07.981Z,4.70
2022-09-26T06:53:09.999Z,5.10
2022-09-26T06:54:07.959Z,3.90
2022-09-26T06:55:08.000Z,5.60
2022-09-26T06:56:07.936Z,4.50
2022-09-26T06:57:11.633Z,6.10
2022-09-26T06:58:08.906Z,3.90
2022-09-26T06:59:07.941Z,4.70
2022-09-26T07:00:07.889Z,5.20
2022-09-26T07:01:08.004Z,4.70
2022-09-26T07:02:11.065Z,5.20
2022-09-26T07:03:07.860Z,3.60
2022-09-26T07:04:08.832Z,4.80
2022-09-26T07:05:07.867Z,3.90
2022-09-26T07:06:07.856Z,5.10
2022-09-26T07:07:07.809Z,4.40
2022-09-26T07:08:07.809Z,4.50
2022-09-26T07:09:12.457Z,3.60
2022-09-26T07:10:08.353Z,4.90
2022-09-26T07:11:31.242Z,7.20
2022-09-26T07:12:16.286Z,5.20
2022-09-26T07:13:08.756Z,4.00
2022-09-26T07:14:07.740Z,4.30
2022-09-26T07:15:09.795Z,4.70
2022-09-26T07:16:07.779Z,4.10
2022-09-26T07:17:07.725Z,5.00
2022-09-26T07:18:07.789Z,3.10
2022-09-26T07:19:07.698Z,3.50
2022-09-26T07:20:07.670Z,6.00
2022-09-26T07:21:08.331Z,4.40
2022-09-26T07:22:07.659Z,3.60
2022-09-26T07:23:07.665Z,4.70
2022-09-26T07:24:07.631Z,3.90
2022-09-26T07:25:10.332Z,2.90
2022-09-26T07:26:10.339Z,3.50
2022-09-26T07:27:08.334Z,3.20
2022-09-26T07:28:07.588Z,3.80
2022-09-26T07:29:07.643Z,3.10
2022-09-26T07:30:07.559Z,5.10
2022-09-26T07:31:08.387Z,3.50
2022-09-26T07:32:08.334Z,4.70
2022-09-26T07:33:08.348Z,2.60
2022-09-26T07:34:07.552Z,4.60
2022-09-26T07:35:07.539Z,5.60
2022-09-26T07:36:08.336Z,3.90
2022-09-26T07:37:07.487Z,2.50
2022-09-26T07:38:07.866Z,6.20
2022-09-26T07:39:07.471Z,5.40
2022-09-26T07:40:08.332Z,3.80
2022-09-26T07:41:07.439Z,3.40
2022-09-26T07:42:07.473Z,4.80
2022-09-26T07:43:35.681Z,2.40
2022-09-26T07:45:29.394Z,2.80
2022-09-26T07:46:09.474Z,3.80
2022-09-26T07:47:08.469Z,3.00
2022-09-26T07:48:07.385Z,5.50
2022-09-26T07:49:08.337Z,3.40
2022-09-26T07:50:07.882Z,3.80
2022-09-26T07:51:09.422Z,3.80
2022-09-26T07:52:07.386Z,4.70
2022-09-26T07:53:07.312Z,3.20
2022-09-26T07:54:07.306Z,5.40
2022-09-26T07:55:07.299Z,4.20
2022-09-26T07:56:07.280Z,3.60
2022-09-26T07:57:07.266Z,6.50
2022-09-26T07:58:07.296Z,2.80
2022-09-26T07:59:13.836Z,1.80
2022-09-26T08:00:07.833Z,2.30
2022-09-26T08:01:07.241Z,1.60
2022-09-26T08:02:10.055Z,1.60
2022-09-26T08:03:09.958Z,1.10
2022-09-26T08:04:07.279Z,1.30
2022-09-26T08:05:07.183Z,2.80
2022-09-26T08:06:07.847Z,2.10
2022-09-26T08:07:07.171Z,2.70
2022-09-26T08:08:07.357Z,3.10
2022-09-26T08:09:07.843Z,1.50
2022-09-26T08:10:07.161Z,4.10
2022-09-26T08:11:07.130Z,2.00
2022-09-26T08:12:07.104Z,1.90
2022-09-26T08:13:07.841Z,3.70
2022-09-26T08:14:07.837Z,2.50
2022-09-26T08:15:07.084Z,2.00
2022-09-26T08:16:07.138Z,1.70
2022-09-26T08:17:11.878Z,2.30
2022-09-26T08:18:08.860Z,1.70
2022-09-26T08:19:07.054Z,1.30
2022-09-26T08:20:07.051Z,1.60
2022-09-26T08:21:09.864Z,1.50
2022-09-26T08:22:07.009Z,2.20
2022-09-26T08:23:06.993Z,1.70
2022-09-26T08:24:06.997Z,2.40
2022-09-26T08:25:06.998Z,2.00
2022-09-26T08:26:07.833Z,1.60
2022-09-26T08:27:06.983Z,2.40
2022-09-26T08:28:06.933Z,1.30
2022-09-26T08:29:09.871Z,1.80
2022-09-26T08:30:06.901Z,1.40
2022-09-26T08:31:06.925Z,2.50
2022-09-26T08:32:06.917Z,2.30
2022-09-26T08:33:06.905Z,2.10
2022-09-26T08:34:06.884Z,1.30
2022-09-26T08:35:07.842Z,2.70
2022-09-26T08:36:13.877Z,1.40
2022-09-26T08:37:06.867Z,1.60
2022-09-26T08:38:06.822Z,2.10
2022-09-26T08:39:06.911Z,1.20
2022-09-26T08:40:07.341Z,1.70
2022-09-26T08:41:07.438Z,2.50
2022-09-26T08:42:09.338Z,2.30
2022-09-26T08:43:06.827Z,2.10
2022-09-26T08:44:06.827Z,1.50
2022-09-26T08:45:06.771Z,3.10
2022-09-26T08:46:06.797Z,2.50
2022-09-26T08:47:06.730Z,1.80
2022-09-26T08:48:06.713Z,2.00
2022-09-26T08:49:06.736Z,2.00
2022-09-26T08:50:07.346Z,3.10
2022-09-26T08:51:06.684Z,1.20
2022-09-26T08:52:06.881Z,2.10
2022-09-26T08:53:07.354Z,1.60
2022-09-26T08:54:06.808Z,1.80
2022-09-26T08:55:07.687Z,1.60
2022-09-26T08:56:06.614Z,2.30
2022-09-26T08:57:06.612Z,1.80
2022-09-26T08:58:06.610Z,1.60
2022-09-26T08:59:06.883Z,2.00
2022-09-26T09:00:06.618Z,2.90
2022-09-26T09:01:06.613Z,1.60
2022-09-26T09:02:06.799Z,1.70
2022-09-26T09:03:07.425Z,1.90
2022-09-26T09:04:06.571Z,1.70
2022-09-26T09:05:06.876Z,1.50
2022-09-26T09:06:06.543Z,2.00
2022-09-26T09:07:06.534Z,2.30
2022-09-26T09:08:06.536Z,1.20
2022-09-26T09:09:09.345Z,1.90
2022-09-26T09:10:06.471Z,1.60
2022-09-26T09:11:06.498Z,1.60
2022-09-26T09:12:06.453Z,1.70
2022-09-26T09:13:06.426Z,1.60
2022-09-26T09:14:06.546Z,2.10
2022-09-26T09:15:24.769Z,3.50
2022-09-26T09:16:07.544Z,1.60
2022-09-26T09:17:06.445Z,1.40
2022-09-26T09:18:11.236Z,1.70
2022-09-26T09:19:07.370Z,1.70
2022-09-26T09:20:07.340Z,2.10
2022-09-26T09:21:06.405Z,2.10
2022-09-26T09:22:06.358Z,1.80
2022-09-26T09:23:06.340Z,1.50
2022-09-26T09:24:06.469Z,1.70
2022-09-26T09:25:06.309Z,2.10
2022-09-26T09:28:24.681Z,2.20
2022-09-26T09:29:23.705Z,1.60
2022-09-26T09:30:23.045Z,1.60
2022-09-26T09:31:23.104Z,1.50
2022-09-26T09:32:23.055Z,1.70
2022-09-26T09:33:23.692Z,2.10
2022-09-26T09:34:23.674Z,2.20
2022-09-26T09:35:23.011Z,1.80
2022-09-26T09:36:22.997Z,1.50
2022-09-26T09:37:22.959Z,2.00
2022-09-26T09:38:23.206Z,1.60
2022-09-26T09:39:22.968Z,1.70
2022-09-26T09:40:23.020Z,1.60
2022-09-26T09:41:22.931Z,1.60
2022-09-26T09:42:22.897Z,2.90
2022-09-26T09:43:22.920Z,2.10
2022-09-26T09:44:22.887Z,1.50
2022-09-26T09:45:23.691Z,1.60
2022-09-26T09:46:22.929Z,2.80
2022-09-26T09:47:23.682Z,1.70
2022-09-26T09:48:22.873Z,1.90
2022-09-26T09:49:26.266Z,1.80
2022-09-26T09:50:23.747Z,1.70
2022-09-26T09:51:23.688Z,2.00
2022-09-26T09:52:22.813Z,1.80
2022-09-26T09:53:22.795Z,1.70
2022-09-26T09:54:22.766Z,1.50
2022-09-26T09:55:23.709Z,1.50
2022-09-26T09:56:22.781Z,1.70
2022-09-26T09:57:22.742Z,2.00
2022-09-26T09:58:22.745Z,2.90
2022-09-26T09:59:23.686Z,1.90
2022-09-26T10:00:22.749Z,2.00
2022-09-26T10:01:22.705Z,1.60
2022-09-26T10:02:23.757Z,1.70
2022-09-26T10:03:23.230Z,2.40
2022-09-26T10:04:22.676Z,2.90
2022-09-26T10:05:22.726Z,1.50
2022-09-26T10:06:45.968Z,2.30
2022-09-26T10:07:23.635Z,1.60
2022-09-26T10:08:22.640Z,3.70
2022-09-26T10:09:36.024Z,2.00
2022-09-26T10:10:23.587Z,1.90
2022-09-26T10:11:22.612Z,1.50
2022-09-26T10:12:22.599Z,1.80
2022-09-26T10:13:23.621Z,1.80
2022-09-26T10:14:22.552Z,2.70
2022-09-26T10:15:22.556Z,1.60
2022-09-26T10:16:22.628Z,2.30
2022-09-26T10:17:22.554Z,1.70
2022-09-26T10:18:25.836Z,2.00
2022-09-26T10:19:23.203Z,1.50
2022-09-26T10:20:22.502Z,2.00
2022-09-26T10:21:22.714Z,1.60
2022-09-26T10:22:22.481Z,2.20
2022-09-26T10:23:22.487Z,1.90
2022-09-26T10:24:22.450Z,1.90
2022-09-26T10:25:22.428Z,2.60
2022-09-26T10:26:22.424Z,1.60
2022-09-26T10:27:22.441Z,2.60
2022-09-26T10:28:22.427Z,1.60
2022-09-26T10:29:22.388Z,1.70
2022-09-26T10:30:23.177Z,1.50
2022-09-26T10:31:22.483Z,1.80
2022-09-26T10:32:22.362Z,1.90
2022-09-26T10:33:22.347Z,3.10
2022-09-26T10:34:22.345Z,1.10
2022-09-26T10:35:22.342Z,1.40
2022-09-26T10:36:22.309Z,1.60
2022-09-26T10:37:23.189Z,1.50
2022-09-26T10:38:22.310Z,1.20
2022-09-26T10:39:22.300Z,1.90
2022-09-26T10:40:22.337Z,1.90
2022-09-26T10:41:22.252Z,1.40
2022-09-26T10:42:22.250Z,2.40
2022-09-26T10:43:22.271Z,1.90
2022-09-26T10:44:22.241Z,1.40
2022-09-26T10:45:22.212Z,1.00
2022-09-26T10:46:22.311Z,2.10
2022-09-26T10:47:22.183Z,1.40
2022-09-26T10:48:22.242Z,1.50
2022-09-26T10:49:22.185Z,1.20
2022-09-26T10:50:24.690Z,1.20
2022-09-26T10:51:24.716Z,1.30
2022-09-26T10:52:22.136Z,2.80
2022-09-26T10:53:22.121Z,1.40
2022-09-26T10:54:22.140Z,1.60
2022-09-26T10:55:22.118Z,1.20
2022-09-26T10:56:22.093Z,1.20
2022-09-26T10:57:22.083Z,1.70
2022-09-26T10:58:22.247Z,2.10
2022-09-26T10:59:22.094Z,2.30
2022-09-26T11:00:22.094Z,1.30
2022-09-26T11:01:22.203Z,1.10
2022-09-26T11:02:22.020Z,1.50
2022-09-26T11:03:22.107Z,2.80
2022-09-26T11:04:21.998Z,2.20
2022-09-26T11:05:24.699Z,1.20
2022-09-26T11:06:24.040Z,1.30
2022-09-26T11:07:21.967Z,2.10
2022-09-26T11:08:21.956Z,1.20
2022-09-26T11:09:21.970Z,1.50
2022-09-26T11:10:21.937Z,2.70
2022-09-26T11:11:22.688Z,5.20
2022-09-26T11:12:22.242Z,1.00
2022-09-26T11:13:22.222Z,2.50
2022-09-26T11:14:25.941Z,2.00
2022-09-26T11:15:22.889Z,1.60
2022-09-26T11:16:22.810Z,0.90
2022-09-26T11:17:21.859Z,1.10
2022-09-26T11:18:23.719Z,1.10
2022-09-26T11:19:21.851Z,1.00
2022-09-26T11:20:24.691Z,1.10
2022-09-26T11:21:28.912Z,1.00
2022-09-26T11:22:23.692Z,1.60
2022-09-26T11:23:21.805Z,1.40
2022-09-26T11:24:21.770Z,2.30
2022-09-26T11:25:21.770Z,1.00
2022-09-26T11:26:22.685Z,1.10
2022-09-26T11:27:22.695Z,2.20
2022-09-26T11:28:21.748Z,1.90
2022-09-26T11:29:21.718Z,1.50
2022-09-26T11:30:21.712Z,0.90
2022-09-26T11:31:21.777Z,1.80
2022-09-26T11:32:21.691Z,1.10
2022-09-26T11:33:21.716Z,0.90
2022-09-26T11:34:21.667Z,1.50
2022-09-26T11:35:21.650Z,2.60
2022-09-26T11:36:21.646Z,1.70
2022-09-26T11:37:21.647Z,1.80
2022-09-26T11:38:21.665Z,1.20
2022-09-26T11:39:21.628Z,1.20
2022-09-26T11:40:21.652Z,0.80
2022-09-26T11:41:22.198Z,1.20
2022-09-26T11:42:21.574Z,0.90
2022-09-26T11:43:21.608Z,2.00
2022-09-26T11:44:21.556Z,1.10
2022-09-26T11:45:21.538Z,1.20
2022-09-26T11:46:21.586Z,1.80
2022-09-26T11:47:22.212Z,1.30
2022-09-26T11:48:28.205Z,1.30
2022-09-26T11:49:21.731Z,1.10
2022-09-26T11:50:21.521Z,1.90
2022-09-26T11:51:21.461Z,0.80
2022-09-26T11:52:21.480Z,0.60
2022-09-26T11:53:21.466Z,1.50
2022-09-26T11:54:24.200Z,1.20
2022-09-26T11:55:21.451Z,1.50
2022-09-26T11:56:21.429Z,1.20
2022-09-26T11:57:21.433Z,0.90
2022-09-26T11:58:21.396Z,0.90
2022-09-26T11:59:21.380Z,0.80
2022-09-26T12:00:21.392Z,1.10
2022-09-26T12:01:21.362Z,1.20
2022-09-26T12:02:21.556Z,1.10
2022-09-26T12:03:21.470Z,1.20
2022-09-26T12:04:21.362Z,1.50
2022-09-26T12:05:26.103Z,2.10
2022-09-26T12:06:25.202Z,0.70
2022-09-26T12:07:21.304Z,0.90
2022-09-26T12:08:21.280Z,0.50
2022-09-26T12:09:21.287Z,1.40
2022-09-26T12:10:21.269Z,0.60
2022-09-26T12:11:21.276Z,1.60
2022-09-26T12:12:21.228Z,1.10
2022-09-26T12:13:21.255Z,0.70
2022-09-26T12:14:21.224Z,1.50
2022-09-26T12:15:21.233Z,0.80
2022-09-26T12:16:21.249Z,0.70
2022-09-26T12:17:21.186Z,0.90
2022-09-26T12:18:21.173Z,0.90
2022-09-26T12:19:21.202Z,0.70
2022-09-26T12:20:21.176Z,0.80
2022-09-26T12:21:21.177Z,1.40
2022-09-26T12:22:21.122Z,0.50
2022-09-26T12:23:21.118Z,1.70
2022-09-26T12:24:21.126Z,0.60
2022-09-26T12:25:21.120Z,1.30
2022-09-26T12:26:21.091Z,0.70
2022-09-26T12:27:21.077Z,1.50
2022-09-26T12:28:21.057Z,1.50
2022-09-26T12:29:21.055Z,0.60
2022-09-26T12:30:21.064Z,0.50
2022-09-26T12:31:21.177Z,1.40
2022-09-26T12:32:21.031Z,0.70
2022-09-26T12:33:21.018Z,2.10
2022-09-26T12:34:20.997Z,1.20
2022-09-26T12:35:21.003Z,0.60
2022-09-26T12:36:20.991Z,1.00
2022-09-26T12:37:20.958Z,0.80
2022-09-26T12:38:20.964Z,0.60
2022-09-26T12:39:20.947Z,0.90
2022-09-26T12:40:21.771Z,0.80
2022-09-26T12:41:21.234Z,0.60
2022-09-26T12:42:20.910Z,1.80
2022-09-26T12:43:20.915Z,0.60
2022-09-26T12:44:20.910Z,0.70
2022-09-26T12:45:43.973Z,1.20
2022-09-26T12:46:20.930Z,1.20
2022-09-26T12:47:20.851Z,0.80
2022-09-26T12:48:24.745Z,1.40
2022-09-26T12:49:20.831Z,0.60
2022-09-26T12:50:20.830Z,0.80
2022-09-26T12:51:20.833Z,1.50
2022-09-26T12:52:27.134Z,1.10
2022-09-26T12:53:20.802Z,1.40
2022-09-26T12:54:20.797Z,0.80
2022-09-26T12:55:20.775Z,0.60
2022-09-26T12:56:20.763Z,1.00
2022-09-26T12:57:20.751Z,1.60
2022-09-26T12:58:20.752Z,0.90
2022-09-26T12:59:21.708Z,1.10
2022-09-26T13:00:20.740Z,1.30
2022-09-26T13:01:20.744Z,1.90
2022-09-26T13:02:21.247Z,1.40
2022-09-26T13:03:20.749Z,1.60
2022-09-26T13:04:21.720Z,1.00
2022-09-26T13:05:20.658Z,1.50
2022-09-26T13:06:20.651Z,1.20
2022-09-26T13:07:21.023Z,1.70
2022-09-26T13:08:20.653Z,1.00
2022-09-26T13:09:20.634Z,1.20
2022-09-26T13:10:20.632Z,1.30
2022-09-26T13:11:20.592Z,0.60
2022-09-26T13:12:20.582Z,1.30
2022-09-26T13:13:20.576Z,1.10
2022-09-26T13:14:20.565Z,0.60
2022-09-26T13:15:20.581Z,2.40
2022-09-26T13:16:20.629Z,2.70
2022-09-26T13:17:20.527Z,1.90
2022-09-26T13:18:25.837Z,1.10
2022-09-26T13:19:21.499Z,1.50
2022-09-26T13:20:20.486Z,1.50
2022-09-26T13:21:20.492Z,1.00